Time;durP1;ratioP1;P1;durP2;ratioP2;P2;SDS_P1;SDS_P2;PMS_P1;PMS_P2;Temp;Humidity;BMP_temperature;BMP_pressure;BME280_temperature;BME280_humidity;BME280_pressure;Samples;Min_cycle;Max_cycle;Signal;HPM_P1;HPM_P2
2022/10/30 00:00:52;;;;;;;;;10.50;8.00;;;;;17.58;61.44;101405.84;5055374;28;47024;-76
2022/10/30 00:03:18;;;;;;;;;12.50;9.00;;;;;17.54;61.20;101414.81;5055072;28;51853;-77
2022/10/30 00:05:46;;;;;;;;;14.50;9.25;;;;;17.51;61.29;101420.22;5054301;28;69295;-76
2022/10/30 00:08:12;;;;;;;;;11.50;10.25;;;;;17.48;61.82;101422.19;5039724;28;45366;-77
2022/10/30 00:10:38;;;;;;;;;15.00;9.00;;;;;17.42;61.87;101415.38;5058742;28;47129;-76
2022/10/30 00:13:04;;;;;;;;;12.75;8.25;;;;;17.37;61.31;101415.63;5058798;28;45490;-76
2022/10/30 00:15:29;;;;;;;;;10.75;6.50;;;;;17.36;61.91;101413.91;5040852;28;45378;-77
2022/10/30 00:17:54;;;;;;;;;13.25;10.25;;;;;17.34;61.87;101414.91;5057953;28;70551;-76
2022/10/30 00:20:20;;;;;;;;;9.00;7.75;;;;;17.31;61.71;101410.66;5057946;28;51121;-77
2022/10/30 00:22:45;;;;;;;;;8.00;7.00;;;;;17.29;61.59;101414.25;5057579;28;73345;-76
2022/10/30 00:25:10;;;;;;;;;9.50;7.25;;;;;17.31;62.50;101407.16;5058074;28;62060;-76
2022/10/30 00:27:35;;;;;;;;;14.00;9.00;;;;;17.31;62.47;101413.28;5057715;28;68481;-76
2022/10/30 00:30:01;;;;;;;;;10.75;7.75;;;;;17.29;62.50;101406.38;5057756;28;69223;-77
2022/10/30 00:32:27;;;;;;;;;14.25;8.00;;;;;17.28;62.21;101397.63;5057629;28;66470;-76
2022/10/30 00:34:52;;;;;;;;;10.25;7.00;;;;;17.29;62.81;101395.84;5040278;28;45350;-76
2022/10/30 00:37:17;;;;;;;;;9.25;7.00;;;;;17.30;62.61;101401.03;5057771;28;66076;-76
2022/10/30 00:39:43;;;;;;;;;7.75;6.50;;;;;17.30;62.71;101406.31;5058232;28;49706;-76
2022/10/30 00:42:12;;;;;;;;;9.00;6.50;;;;;17.29;62.39;101409.88;5039392;28;73212;-76
2022/10/30 00:44:43;;;;;;;;;11.25;8.00;;;;;17.27;62.66;101406.44;5058302;28;45312;-77
2022/10/30 00:47:22;;;;;;;;;12.25;9.75;;;;;17.25;62.93;101400.38;5058450;28;45469;-76
2022/10/30 00:49:52;;;;;;;;;13.00;8.25;;;;;17.21;62.59;101404.94;5039950;28;45378;-77
2022/10/30 00:52:19;;;;;;;;;10.00;6.75;;;;;17.18;62.60;101414.78;5040343;28;45361;-76
2022/10/30 00:54:44;;;;;;;;;9.00;9.00;;;;;17.15;62.90;101407.88;5040363;28;45266;-76
2022/10/30 00:57:10;;;;;;;;;7.75;5.75;;;;;17.13;62.78;101411.50;5057238;28;70659;-76
2022/10/30 00:59:35;;;;;;;;;14.00;10.25;;;;;17.10;63.33;101420.38;5039732;28;52786;-76
2022/10/30 01:02:02;;;;;;;;;11.50;8.50;;;;;17.07;63.07;101409.13;5058105;28;45398;-76
2022/10/30 01:04:28;;;;;;;;;10.25;7.50;;;;;17.03;63.57;101419.81;5039754;28;45509;-76
2022/10/30 01:06:54;;;;;;;;;13.00;9.50;;;;;17.01;63.31;101418.16;5058118;28;45509;-75
2022/10/30 01:09:20;;;;;;;;;11.00;9.75;;;;;16.99;63.34;101420.00;5056962;28;73969;-75
2022/10/30 01:11:46;;;;;;;;;9.00;6.50;;;;;16.96;63.44;101414.91;5057856;28;45366;-76
2022/10/30 01:14:14;;;;;;;;;10.75;9.25;;;;;16.94;64.02;101416.75;5056693;28;45335;-75
2022/10/30 01:16:58;;;;;;;;;12.25;10.00;;;;;16.92;63.98;101410.66;5040199;28;45414;-76
2022/10/30 01:19:38;;;;;;;;;12.00;11.50;;;;;16.92;63.92;101419.44;5056227;28;47175;-75
2022/10/30 01:22:37;;;;;;;;;11.50;9.00;;;;;16.92;64.11;101418.56;5057878;28;45776;-75
2022/10/30 01:25:21;;;;;;;;;9.00;7.00;;;;;16.92;63.90;101415.94;5057829;28;45571;-76
2022/10/30 01:27:58;;;;;;;;;16.00;10.75;;;;;16.89;63.76;101422.19;5057794;28;45556;-75
2022/10/30 01:30:46;;;;;;;;;11.75;7.75;;;;;16.88;63.99;101420.47;5039657;28;46426;-75
2022/10/30 01:33:17;;;;;;;;;12.00;7.75;;;;;16.86;64.01;101424.94;4995126;28;45931;-75
2022/10/30 01:35:58;;;;;;;;;11.50;10.00;;;;;16.87;64.04;101415.31;4995538;28;45481;-76
2022/10/30 01:38:41;;;;;;;;;9.75;8.50;;;;;16.90;64.22;101412.53;4995485;28;45585;-75
2022/10/30 01:41:06;;;;;;;;;11.00;8.50;;;;;16.89;64.32;101413.47;4995289;28;46503;-75
2022/10/30 01:43:33;;;;;;;;;11.25;8.25;;;;;16.89;64.40;101409.03;4994048;28;72281;-75
2022/10/30 01:46:07;;;;;;;;;10.00;8.00;;;;;16.86;64.08;101405.69;4978167;28;65127;-75
2022/10/30 01:48:44;;;;;;;;;10.25;7.75;;;;;16.84;64.37;101413.66;4995040;28;45554;-76
2022/10/30 01:51:09;;;;;;;;;13.00;10.00;;;;;16.83;64.60;101411.97;4995217;28;45509;-75
2022/10/30 01:53:45;;;;;;;;;8.00;7.00;;;;;16.81;64.73;101406.72;4978808;28;45467;-75
2022/10/30 01:56:34;;;;;;;;;13.25;9.00;;;;;16.79;64.49;101398.06;4978853;28;45425;-75
2022/10/30 01:59:06;;;;;;;;;12.75;7.50;;;;;16.77;64.43;101399.91;4978865;28;45302;-75
2022/10/30 02:01:34;;;;;;;;;18.50;11.50;;;;;16.78;64.36;101392.88;4994611;28;47381;-75
2022/10/30 02:04:00;;;;;;;;;13.50;10.50;;;;;16.79;64.69;101392.81;4978885;28;45779;-75
2022/10/30 02:06:25;;;;;;;;;14.50;10.75;;;;;16.81;64.93;101390.97;4995205;28;45446;-75
2022/10/30 02:08:54;;;;;;;;;12.75;10.75;;;;;16.85;64.97;101393.50;4977687;28;68157;-75
2022/10/30 02:11:20;;;;;;;;;13.75;10.50;;;;;16.88;65.17;101386.28;5054387;28;47356;-75
2022/10/30 02:13:45;;;;;;;;;13.50;12.50;;;;;16.94;64.52;101385.19;5038058;28;71694;-75
2022/10/30 02:16:11;;;;;;;;;8.00;7.25;;;;;16.98;64.88;101384.13;5022117;28;45373;-75
2022/10/30 02:18:36;;;;;;;;;11.50;9.50;;;;;17.01;64.88;101383.97;5037879;28;71419;-75
2022/10/30 02:21:01;;;;;;;;;11.75;11.25;;;;;17.02;64.94;101383.06;5055802;28;67598;-75
2022/10/30 02:23:27;;;;;;;;;15.00;10.00;;;;;17.03;64.60;101385.63;5037853;28;64707;-75
2022/10/30 02:25:52;;;;;;;;;17.25;13.25;;;;;17.03;64.57;101384.75;5038368;28;54618;-75
2022/10/30 02:28:17;;;;;;;;;14.75;12.25;;;;;17.02;64.79;101378.63;5055990;28;66532;-75
2022/10/30 02:30:43;;;;;;;;;15.00;12.25;;;;;17.02;65.26;101380.41;5056084;28;46666;-75
2022/10/30 02:33:09;;;;;;;;;16.50;12.00;;;;;17.03;65.12;101376.84;5038096;28;55478;-76
2022/10/30 02:35:34;;;;;;;;;12.75;10.00;;;;;17.03;65.19;101384.75;5038566;28;45304;-75
2022/10/30 02:38:00;;;;;;;;;18.50;12.75;;;;;17.04;65.05;101386.47;5056755;28;45361;-75
2022/10/30 02:40:25;;;;;;;;;17.75;11.00;;;;;17.05;65.25;101379.41;5056547;28;45894;-75
2022/10/30 02:42:52;;;;;;;;;12.25;10.50;;;;;17.06;65.15;101381.13;5038311;28;48513;-75
2022/10/30 02:45:17;;;;;;;;;15.25;11.75;;;;;17.03;64.90;101369.84;5056114;28;45565;-75
2022/10/30 02:47:42;;;;;;;;;14.50;11.50;;;;;17.03;64.98;101375.09;5054338;28;68506;-75
2022/10/30 02:50:08;;;;;;;;;10.50;8.25;;;;;17.01;65.02;101371.69;5055411;28;72182;-75
2022/10/30 02:52:34;;;;;;;;;11.25;10.50;;;;;16.99;64.86;101365.66;5056323;28;45386;-75
2022/10/30 02:54:59;;;;;;;;;13.00;10.50;;;;;16.98;65.14;101370.97;5038104;28;51777;-75
2022/10/30 02:57:24;;;;;;;;;16.50;12.00;;;;;16.95;65.38;101369.31;5054064;28;70349;-75
2022/10/30 02:59:50;;;;;;;;;14.50;10.50;;;;;16.93;65.08;101375.59;5054911;28;72767;-75
2022/10/30 03:02:15;;;;;;;;;11.50;10.50;;;;;16.92;65.06;101368.59;5056087;28;45727;-75
2022/10/30 03:04:40;;;;;;;;;13.50;9.00;;;;;16.92;65.17;101372.09;5056328;28;45461;-75
2022/10/30 03:07:05;;;;;;;;;13.50;11.50;;;;;16.91;65.43;101375.66;5055517;28;61222;-75
2022/10/30 03:09:31;;;;;;;;;12.50;9.25;;;;;16.90;65.54;101384.47;5037374;28;65404;-75
2022/10/30 03:11:56;;;;;;;;;12.50;11.00;;;;;16.89;65.62;101372.22;5056198;28;45366;-75
2022/10/30 03:14:21;;;;;;;;;13.00;9.25;;;;;16.86;65.27;101384.66;5055064;28;64087;-75
2022/10/30 03:16:47;;;;;;;;;14.50;11.00;;;;;16.85;65.28;101377.72;5055087;28;70062;-75
2022/10/30 03:19:12;;;;;;;;;11.25;10.25;;;;;16.81;65.30;101369.91;5055909;28;47181;-75
2022/10/30 03:21:37;;;;;;;;;14.50;12.00;;;;;16.84;65.51;101371.59;5054620;28;74022;-75
2022/10/30 03:24:03;;;;;;;;;10.75;10.75;;;;;16.83;65.01;101360.22;5056008;28;45402;-75
2022/10/30 03:26:28;;;;;;;;;11.75;10.25;;;;;16.86;65.39;101371.53;5055923;28;45485;-76
2022/10/30 03:28:54;;;;;;;;;12.25;10.50;;;;;16.87;65.51;101366.19;5054473;28;72194;-75
2022/10/30 03:31:19;;;;;;;;;12.50;11.00;;;;;16.87;65.31;101366.19;5054959;28;69018;-75
2022/10/30 03:33:44;;;;;;;;;13.00;11.75;;;;;16.89;65.18;101361.72;5055772;28;45774;-76
2022/10/30 03:36:11;;;;;;;;;13.75;12.00;;;;;16.90;65.15;101359.94;5055738;28;45304;-75
2022/10/30 03:38:37;;;;;;;;;15.25;12.00;;;;;16.91;65.34;101357.25;5038015;28;46038;-75
2022/10/30 03:41:03;;;;;;;;;11.00;11.00;;;;;16.91;65.45;101354.59;5055609;28;45494;-75
2022/10/30 03:43:29;;;;;;;;;12.50;12.50;;;;;16.92;65.32;101351.06;5054424;28;45334;-75
2022/10/30 03:45:55;;;;;;;;;14.50;11.00;;;;;16.92;65.73;101356.31;5055162;28;60829;-75
2022/10/30 03:48:25;;;;;;;;;15.25;12.50;;;;;16.92;65.71;101363.34;5055547;28;45364;-76
2022/10/30 03:50:54;;;;;;;;;15.00;13.00;;;;;16.91;65.71;101346.72;5055647;28;45313;-75
2022/10/30 03:53:20;;;;;;;;;14.25;11.25;;;;;16.91;65.78;101343.25;5055670;28;45406;-75
2022/10/30 03:55:45;;;;;;;;;13.00;10.75;;;;;16.93;65.77;101347.50;5055567;28;45372;-76
2022/10/30 03:58:10;;;;;;;;;12.00;11.00;;;;;16.93;65.53;101341.41;5055041;28;46648;-75
2022/10/30 04:00:36;;;;;;;;;19.00;12.75;;;;;16.94;65.50;101337.84;5036361;28;73639;-76
2022/10/30 04:03:07;;;;;;;;;18.00;14.25;;;;;16.94;65.36;101324.72;5054549;28;63361;-76
2022/10/30 04:05:33;;;;;;;;;15.50;14.50;;;;;16.93;65.52;101333.50;5055504;28;45293;-75
2022/10/30 04:08:04;;;;;;;;;18.75;15.50;;;;;16.92;64.96;101332.66;5055188;28;46162;-75
2022/10/30 04:10:29;;;;;;;;;17.50;14.00;;;;;16.90;65.32;101337.13;5037344;28;45324;-75
2022/10/30 04:13:06;;;;;;;;;18.50;15.75;;;;;16.89;65.36;101343.31;5053988;28;69235;-75
2022/10/30 04:15:31;;;;;;;;;20.50;14.75;;;;;16.89;65.09;101342.47;5037191;28;45283;-75
2022/10/30 04:17:57;;;;;;;;;17.75;13.75;;;;;16.86;65.47;101340.81;5055238;28;45967;-76
2022/10/30 04:20:23;;;;;;;;;23.00;14.50;;;;;16.85;65.30;101327.75;5054955;28;45421;-75
2022/10/30 04:22:54;;;;;;;;;20.75;14.50;;;;;16.84;65.33;101326.88;5037129;28;45263;-75
2022/10/30 04:25:19;;;;;;;;;22.00;17.50;;;;;16.81;65.42;101329.66;5055247;28;45278;-75
2022/10/30 04:27:45;;;;;;;;;24.25;19.50;;;;;16.81;65.69;101325.22;5035815;28;72174;-76
2022/10/30 04:30:11;;;;;;;;;23.25;20.50;;;;;16.80;65.22;101327.91;5055254;28;45308;-75
2022/10/30 04:32:47;;;;;;;;;24.75;19.00;;;;;16.80;65.49;101325.28;5055165;28;45336;-75
2022/10/30 04:35:14;;;;;;;;;25.00;20.75;;;;;16.78;65.86;101327.16;5054949;28;45382;-75
2022/10/30 04:37:39;;;;;;;;;24.50;23.25;;;;;16.74;65.65;101320.31;5054915;28;45453;-75
2022/10/30 04:40:05;;;;;;;;;21.75;20.00;;;;;16.72;65.75;101327.44;5054046;28;73206;-75
2022/10/30 04:42:31;;;;;;;;;23.00;21.50;;;;;16.70;65.89;101327.50;5054463;28;45414;-75
2022/10/30 04:44:56;;;;;;;;;26.50;21.75;;;;;16.68;66.07;101316.19;5054743;28;45334;-75
2022/10/30 04:47:22;;;;;;;;;28.25;22.50;;;;;16.66;65.86;101315.41;5053845;28;73695;-76
2022/10/30 04:49:47;;;;;;;;;29.00;19.25;;;;;16.66;65.81;101318.03;5053654;28;73029;-76
2022/10/30 04:52:12;;;;;;;;;23.75;20.25;;;;;16.64;65.91;101312.84;5053516;28;45383;-76
2022/10/30 04:54:38;;;;;;;;;29.25;21.75;;;;;16.62;66.09;101312.06;5057054;28;63207;-76
2022/10/30 04:57:04;;;;;;;;;20.75;16.00;;;;;16.61;66.01;101317.41;5057708;28;45362;-75
2022/10/30 04:59:30;;;;;;;;;27.50;16.50;;;;;16.60;66.01;101311.28;5058117;28;46030;-76
2022/10/30 05:01:55;;;;;;;;;24.75;17.00;;;;;16.58;66.26;101310.47;5057191;28;65759;-76
2022/10/30 05:04:20;;;;;;;;;24.25;18.25;;;;;16.57;66.29;101307.94;5039047;28;69304;-76
2022/10/30 05:06:46;;;;;;;;;21.75;15.25;;;;;16.55;65.96;101315.91;5057934;28;46588;-78
2022/10/30 05:09:11;;;;;;;;;21.50;14.75;;;;;16.53;66.02;101312.50;5040080;28;45388;-77
2022/10/30 05:11:36;;;;;;;;;15.25;14.00;;;;;16.53;66.45;101319.50;5056926;28;63519;-77
2022/10/30 05:14:02;;;;;;;;;22.75;16.25;;;;;16.51;66.43;101316.09;5057067;28;67936;-77
2022/10/30 05:16:27;;;;;;;;;15.25;14.00;;;;;16.47;66.22;101315.38;5057226;28;60940;-77
2022/10/30 05:18:52;;;;;;;;;15.25;14.00;;;;;16.44;66.49;101316.38;5038976;28;70116;-78
2022/10/30 05:21:18;;;;;;;;;20.25;16.00;;;;;16.39;66.92;101314.88;5056815;28;64260;-77
2022/10/30 05:23:43;;;;;;;;;15.50;13.50;;;;;16.35;66.85;101321.19;5057826;28;45378;-77
2022/10/30 05:26:08;;;;;;;;;23.75;16.50;;;;;16.33;67.05;101310.72;5057208;28;46172;-78
2022/10/30 05:28:34;;;;;;;;;16.00;11.50;;;;;16.32;67.00;101301.13;5057659;28;45400;-77
2022/10/30 05:30:59;;;;;;;;;21.00;15.00;;;;;16.32;67.09;101306.38;5057660;28;45443;-77
2022/10/30 05:33:24;;;;;;;;;20.25;13.25;;;;;16.32;66.93;101301.13;5056755;28;66972;-78
2022/10/30 05:35:49;;;;;;;;;14.50;13.25;;;;;16.34;66.99;101303.69;5056600;28;73636;-78
2022/10/30 05:38:15;;;;;;;;;17.50;13.75;;;;;16.31;67.32;101312.56;5056653;28;68999;-78
2022/10/30 05:40:40;;;;;;;;;21.75;15.25;;;;;16.30;67.32;101308.22;5039431;28;45405;-77
2022/10/30 05:43:06;;;;;;;;;16.25;13.00;;;;;16.28;67.27;101314.47;5056790;28;54429;-77
2022/10/30 05:45:31;;;;;;;;;18.50;14.00;;;;;16.24;67.31;101319.00;5038353;28;76859;-77
2022/10/30 05:48:02;;;;;;;;;13.75;13.00;;;;;16.19;67.48;101315.72;5056897;28;61691;-77
2022/10/30 05:50:28;;;;;;;;;13.50;12.00;;;;;16.18;67.38;101306.16;5057519;28;45394;-77
2022/10/30 05:52:57;;;;;;;;;18.25;14.50;;;;;16.19;67.11;101299.97;5057373;28;45408;-77
2022/10/30 05:55:23;;;;;;;;;15.50;12.50;;;;;16.20;67.58;101302.53;5056916;28;47351;-78
2022/10/30 05:57:49;;;;;;;;;15.50;14.50;;;;;16.22;67.50;101297.22;5039224;28;45760;-77
2022/10/30 06:00:15;;;;;;;;;12.75;12.00;;;;;16.22;67.33;101308.56;5057238;28;45347;-77
2022/10/30 06:02:40;;;;;;;;;15.00;13.00;;;;;16.23;67.10;101304.16;5057180;28;45297;-77
2022/10/30 06:05:06;;;;;;;;;15.50;15.25;;;;;16.17;67.34;101305.28;5037689;28;67527;-78
2022/10/30 06:07:31;;;;;;;;;19.50;15.25;;;;;16.15;67.43;101312.38;5056979;28;45319;-77
2022/10/30 06:09:57;;;;;;;;;14.50;13.50;;;;;16.14;67.41;101309.81;5039091;28;45433;-77
2022/10/30 06:12:22;;;;;;;;;18.00;14.50;;;;;16.10;67.54;101300.38;5038024;28;70591;-78
2022/10/30 06:14:48;;;;;;;;;15.25;13.25;;;;;16.11;67.45;101300.31;5056851;28;46107;-77
2022/10/30 06:17:13;;;;;;;;;13.50;13.00;;;;;16.12;67.47;101304.66;5056939;28;45462;-77
2022/10/30 06:19:38;;;;;;;;;17.25;14.00;;;;;16.11;67.87;101302.09;5055800;28;67929;-77
2022/10/30 06:22:03;;;;;;;;;15.00;13.00;;;;;16.09;67.62;101307.41;5055885;28;66882;-77
2022/10/30 06:24:29;;;;;;;;;17.75;14.75;;;;;16.06;67.78;101308.41;5055420;28;75538;-77
2022/10/30 06:26:54;;;;;;;;;14.75;12.00;;;;;16.02;68.05;101312.03;5037853;28;68014;-77
2022/10/30 06:29:19;;;;;;;;;15.50;13.50;;;;;16.01;67.55;101314.72;5037938;28;68129;-78
2022/10/30 06:31:45;;;;;;;;;19.00;13.75;;;;;16.01;67.75;101312.97;5055974;28;63121;-78
2022/10/30 06:34:11;;;;;;;;;14.75;13.50;;;;;16.01;67.63;101322.59;5056565;28;46787;-77
2022/10/30 06:36:37;;;;;;;;;17.50;13.50;;;;;16.00;67.59;101315.66;5056719;28;45501;-78
2022/10/30 06:39:02;;;;;;;;;16.50;15.00;;;;;16.00;67.62;101307.78;5056276;28;45386;-78
2022/10/30 06:41:27;;;;;;;;;19.00;17.75;;;;;16.00;67.65;101316.50;5056417;28;45632;-77
2022/10/30 06:43:53;;;;;;;;;19.50;14.75;;;;;16.00;67.73;101320.91;5038327;28;46302;-78
2022/10/30 06:46:18;;;;;;;;;18.00;15.50;;;;;16.01;67.77;101319.97;5055506;28;69468;-77
2022/10/30 06:48:43;;;;;;;;;19.25;16.50;;;;;16.01;67.57;101320.88;5055845;28;62640;-77
2022/10/30 06:51:10;;;;;;;;;18.25;16.75;;;;;16.02;67.83;101322.56;5056470;28;45355;-77
2022/10/30 06:53:35;;;;;;;;;18.25;15.75;;;;;16.03;67.39;101313.78;5036859;28;74328;-77
2022/10/30 06:56:02;;;;;;;;;16.25;14.00;;;;;16.04;67.53;101328.59;5055598;28;73297;-78
2022/10/30 06:58:28;;;;;;;;;21.50;14.75;;;;;16.05;67.66;101322.44;5056417;28;45422;-78
2022/10/30 07:00:54;;;;;;;;;19.75;15.25;;;;;16.06;67.73;101316.28;5056429;28;45450;-78
2022/10/30 07:03:19;;;;;;;;;17.50;14.75;;;;;16.09;67.41;101317.91;5055589;28;59554;-77
2022/10/30 07:05:45;;;;;;;;;22.50;18.00;;;;;16.12;67.79;101316.91;5056065;28;47143;-78
2022/10/30 07:08:11;;;;;;;;;18.75;15.25;;;;;16.14;67.49;101315.06;5038040;28;45391;-77
2022/10/30 07:10:36;;;;;;;;;16.75;14.75;;;;;16.16;67.23;101321.97;5055252;28;68540;-78
2022/10/30 07:13:01;;;;;;;;;13.00;11.75;;;;;16.17;67.66;101323.66;5055806;28;49897;-78
2022/10/30 07:15:27;;;;;;;;;18.75;14.25;;;;;16.20;67.79;101339.31;5055069;28;72001;-77
2022/10/30 07:17:54;;;;;;;;;15.25;12.00;;;;;16.22;68.04;101337.47;5055045;28;45648;-77
2022/10/30 07:20:19;;;;;;;;;21.00;15.25;;;;;16.26;68.30;101343.44;5034611;28;45522;-77
2022/10/30 07:22:45;;;;;;;;;17.50;15.00;;;;;16.30;67.90;101336.28;5035373;28;45353;-77
2022/10/30 07:25:10;;;;;;;;;14.50;13.25;;;;;16.34;67.78;101324.72;5035751;28;45243;-77
2022/10/30 07:27:46;;;;;;;;;15.25;14.00;;;;;16.38;67.58;101321.03;5035884;28;45788;-77
2022/10/30 07:30:13;;;;;;;;;18.00;12.00;;;;;16.41;67.74;101320.91;5035870;28;45331;-77
2022/10/30 07:32:38;;;;;;;;;17.00;12.25;;;;;16.47;67.31;101319.78;5035631;28;46508;-77
2022/10/30 07:35:05;;;;;;;;;21.00;16.50;;;;;16.51;67.72;101321.34;5035208;28;45525;-77
2022/10/30 07:37:30;;;;;;;;;16.50;16.25;;;;;16.56;67.61;101312.31;5035654;28;45449;-77
2022/10/30 07:39:55;;;;;;;;;16.25;14.50;;;;;16.62;67.35;101308.56;5035774;28;45364;-77
2022/10/30 07:42:21;;;;;;;;;19.75;16.50;;;;;16.65;67.24;101298.78;5034423;28;75885;-78
2022/10/30 07:44:46;;;;;;;;;19.25;17.75;;;;;16.70;66.84;101311.72;5034028;28;45411;-77
2022/10/30 07:47:11;;;;;;;;;16.50;15.00;;;;;16.71;66.80;101308.16;5034707;28;68218;-77
2022/10/30 07:49:37;;;;;;;;;21.50;18.75;;;;;16.72;66.91;101298.50;5033431;28;56889;-77
2022/10/30 07:52:02;;;;;;;;;19.25;13.25;;;;;16.76;66.85;101306.19;5034632;28;71108;-77
2022/10/30 07:54:27;;;;;;;;;16.00;14.75;;;;;16.81;66.50;101312.09;5035440;28;45394;-78
2022/10/30 07:56:53;;;;;;;;;19.00;15.00;;;;;16.87;66.97;101318.03;5034654;28;65935;-77
2022/10/30 07:59:18;;;;;;;;;17.25;13.50;;;;;16.93;67.21;101323.00;5035542;28;45379;-78
2022/10/30 08:01:43;;;;;;;;;18.75;18.00;;;;;17.00;66.98;101321.78;5034878;28;51355;-78
2022/10/30 08:04:10;;;;;;;;;20.50;16.00;;;;;17.08;67.15;101324.06;5034071;28;67385;-77
2022/10/30 08:06:35;;;;;;;;;18.25;14.00;;;;;17.14;66.57;101336.91;5035402;28;45237;-77
2022/10/30 08:09:01;;;;;;;;;14.25;14.25;;;;;17.21;66.51;101339.16;5035373;28;45424;-77
2022/10/30 08:11:26;;;;;;;;;20.75;12.00;;;;;17.28;66.04;101349.44;5035282;28;45351;-77
2022/10/30 08:13:51;;;;;;;;;15.00;12.75;;;;;17.32;66.48;101358.88;5050705;28;45229;-77
2022/10/30 08:16:17;;;;;;;;;18.75;14.75;;;;;17.39;66.59;101360.28;5035260;28;45306;-77
2022/10/30 08:18:42;;;;;;;;;23.00;14.00;;;;;17.46;65.77;101372.25;5033652;28;45483;-77
2022/10/30 08:21:08;;;;;;;;;19.00;15.75;;;;;17.52;65.72;101379.84;5033598;28;48311;-77
2022/10/30 08:23:34;;;;;;;;;16.50;13.00;;;;;17.56;65.55;101368.22;5034923;28;45488;-76
2022/10/30 08:25:59;;;;;;;;;13.75;12.25;;;;;17.60;65.63;101366.28;5035244;28;45370;-76
2022/10/30 08:28:25;;;;;;;;;21.25;17.50;;;;;17.62;65.74;101374.97;5035366;28;64593;-76
2022/10/30 08:30:50;;;;;;;;;18.75;16.00;;;;;17.59;65.60;101383.88;5037442;28;71660;-76
2022/10/30 08:33:15;;;;;;;;;23.75;15.50;;;;;17.59;65.42;101385.66;5037086;28;72149;-78
2022/10/30 08:35:51;;;;;;;;;11.25;11.00;;;;;17.58;65.78;101397.09;5038494;28;45370;-77
2022/10/30 08:38:17;;;;;;;;;22.75;15.50;;;;;17.58;65.75;101397.94;5038373;28;45358;-77
2022/10/30 08:40:42;;;;;;;;;20.25;17.00;;;;;17.61;65.74;101392.56;5037056;28;46298;-75
2022/10/30 08:43:07;;;;;;;;;22.25;16.50;;;;;17.70;66.05;101388.63;5037293;28;62951;-77
2022/10/30 08:45:33;;;;;;;;;25.50;15.50;;;;;17.83;66.04;101388.88;5037625;28;62779;-77
2022/10/30 08:47:59;;;;;;;;;19.25;18.00;;;;;17.97;65.58;101394.34;5037316;28;63225;-78
2022/10/30 08:50:25;;;;;;;;;19.75;17.50;;;;;18.11;65.25;101388.41;5036927;28;47496;-78
2022/10/30 08:52:51;;;;;;;;;18.25;16.00;;;;;18.23;65.49;101393.97;5020191;28;45387;-78
2022/10/30 08:55:16;;;;;;;;;20.75;18.25;;;;;18.28;64.78;101400.72;5038183;28;45313;-78
2022/10/30 08:57:41;;;;;;;;;19.25;15.00;;;;;18.33;64.30;101388.16;5037141;28;70102;-78
2022/10/30 09:00:07;;;;;;;;;18.50;15.25;;;;;18.41;64.25;101382.50;5035940;28;66783;-78
2022/10/30 09:02:34;;;;;;;;;20.25;17.50;;;;;18.45;63.62;101376.13;5037527;28;45382;-78
2022/10/30 09:04:59;;;;;;;;;21.75;19.75;;;;;18.48;63.52;101372.47;5037025;28;45503;-77
2022/10/30 09:07:25;;;;;;;;;19.25;16.50;;;;;18.46;63.59;101364.66;5037969;28;45544;-78
2022/10/30 09:09:50;;;;;;;;;33.50;25.00;;;;;18.47;63.63;101360.25;5037767;28;46253;-77
2022/10/30 09:12:15;;;;;;;;;33.75;29.50;;;;;18.46;63.23;101366.44;5037705;28;45405;-77
2022/10/30 09:14:41;;;;;;;;;27.75;21.00;;;;;18.47;63.70;101369.00;5037240;28;56587;-78
2022/10/30 09:17:07;;;;;;;;;26.00;21.25;;;;;18.50;63.42;101378.53;5037446;28;45454;-77
2022/10/30 09:19:32;;;;;;;;;17.25;13.25;;;;;18.49;63.01;101400.56;5036657;28;73217;-77
2022/10/30 09:21:57;;;;;;;;;25.00;19.25;;;;;18.45;63.25;101410.41;5036103;28;45347;-78
2022/10/30 09:24:23;;;;;;;;;21.75;18.50;;;;;18.44;63.03;101411.31;5036872;28;64051;-78
2022/10/30 09:26:48;;;;;;;;;29.75;19.50;;;;;18.46;63.00;101404.22;5035495;28;67565;-78
2022/10/30 09:29:13;;;;;;;;;23.75;18.00;;;;;18.48;62.71;101412.88;5037503;28;46297;-77
2022/10/30 09:31:39;;;;;;;;;25.50;20.50;;;;;18.52;62.82;101414.44;5036892;28;52358;-78
2022/10/30 09:34:04;;;;;;;;;19.75;19.75;;;;;18.60;63.10;101406.13;5036507;28;68890;-78
2022/10/30 09:36:31;;;;;;;;;27.50;19.50;;;;;18.74;63.40;101408.03;5037220;28;53489;-78
2022/10/30 09:38:56;;;;;;;;;22.75;17.25;;;;;18.81;61.71;101414.72;5037229;28;47215;-78
2022/10/30 09:41:40;;;;;;;;;16.75;15.00;;;;;18.88;61.27;101421.38;5036370;28;45434;-78
2022/10/30 09:44:11;;;;;;;;;21.25;16.00;;;;;18.90;61.70;101408.09;5036064;28;45340;-77
2022/10/30 09:47:12;;;;;;;;;18.75;13.00;;;;;18.90;61.21;101411.59;5037329;28;45285;-77
2022/10/30 09:49:37;;;;;;;;;15.25;12.25;;;;;18.92;60.97;101406.22;5032154;28;47134;-77
2022/10/30 09:52:20;;;;;;;;;18.67;15.00;;;;;18.94;60.98;101431.63;5037240;28;45584;-77
2022/10/30 09:54:56;;;;;;;;;13.50;12.50;;;;;18.93;60.64;101429.91;5052747;28;45342;-77
2022/10/30 09:57:39;;;;;;;;;14.25;13.25;;;;;18.99;60.53;101420.81;5037278;28;45303;-78
2022/10/30 10:00:18;;;;;;;;;10.75;10.75;;;;;19.10;60.69;101420.22;5052195;28;47173;-77
2022/10/30 10:02:55;;;;;;;;;23.25;17.75;;;;;19.21;60.29;101425.78;5052337;28;45784;-78
2022/10/30 10:05:25;;;;;;;;;13.75;9.50;;;;;19.27;60.07;101435.16;5037149;28;45425;-77
2022/10/30 10:08:03;;;;;;;;;18.50;12.25;;;;;19.35;59.67;101425.00;5037152;28;45486;-78
2022/10/30 10:10:43;;;;;;;;;15.50;12.00;;;;;19.42;59.82;101420.25;5052410;28;47640;-77
2022/10/30 10:13:29;;;;;;;;;18.00;10.00;;;;;19.47;58.81;101424.34;5052446;28;45625;-78
2022/10/30 10:16:16;;;;;;;;;15.75;12.50;;;;;19.41;59.23;101422.06;5036618;28;45223;-78
2022/10/30 10:18:47;;;;;;;;;12.75;8.25;;;;;19.47;59.29;101436.69;5036994;28;45306;-77
2022/10/30 10:21:22;;;;;;;;;11.50;8.50;;;;;19.51;59.04;101419.75;5052091;28;48155;-78
2022/10/30 10:23:49;;;;;;;;;9.00;7.75;;;;;19.59;58.60;101414.03;5036629;28;47038;-78
2022/10/30 10:26:43;;;;;;;;;12.75;7.75;;;;;19.68;58.25;101409.06;5036881;28;45223;-78
2022/10/30 10:29:21;;;;;;;;;8.25;7.50;;;;;19.84;58.18;101401.19;5036712;28;45316;-78
2022/10/30 10:32:36;;;;;;;;;8.50;8.00;;;;;19.93;57.48;101410.38;5052000;28;47325;-78
2022/10/30 10:35:05;;;;;;;;;10.25;8.00;;;;;19.97;57.70;101421.63;5014170;28;45802;-78
2022/10/30 10:37:57;;;;;;;;;11.25;7.25;;;;;20.05;57.44;101425.50;5014460;28;45339;-77
2022/10/30 10:40:44;;;;;;;;;10.50;8.00;;;;;20.09;57.36;101431.47;5014331;28;45399;-77
2022/10/30 10:43:58;;;;;;;;;13.75;9.00;;;;;20.15;56.42;101433.78;4997344;28;46118;-78
2022/10/30 10:46:24;;;;;;;;;10.25;8.00;;;;;20.15;56.56;101452.28;5012092;28;45316;-77
2022/10/30 10:49:04;;;;;;;;;11.75;8.25;;;;;20.16;55.49;101467.16;5014357;28;45381;-78
2022/10/30 10:51:41;;;;;;;;;7.00;5.00;;;;;20.18;55.94;101459.16;5013943;28;45353;-78
2022/10/30 10:54:21;;;;;;;;;13.25;9.00;;;;;20.22;55.66;101474.75;4997622;28;46273;-77
2022/10/30 10:56:49;;;;;;;;;9.25;8.00;;;;;20.13;55.45;101483.19;5014025;28;45528;-78
2022/10/30 10:59:19;;;;;;;;;13.25;7.50;;;;;19.94;55.61;101475.47;4997287;28;45325;-78
2022/10/30 11:01:50;;;;;;;;;11.00;7.25;;;;;19.77;56.02;101479.06;4981044;28;45416;-77
2022/10/30 11:04:31;;;;;;;;;11.75;9.75;;;;;19.66;56.72;101481.41;4997226;28;46408;-78
2022/10/30 11:06:57;;;;;;;;;10.00;7.00;;;;;19.55;57.14;101471.44;5013997;28;45835;-77
2022/10/30 11:09:23;;;;;;;;;11.50;8.00;;;;;19.56;57.24;101475.81;4997484;28;45435;-78
2022/10/30 11:11:54;;;;;;;;;12.00;10.25;;;;;19.70;57.59;101485.59;5034261;28;45561;-78
2022/10/30 11:14:28;;;;;;;;;9.00;8.75;;;;;20.16;57.34;101500.69;5034368;28;47150;-78
2022/10/30 11:17:34;;;;;;;;;14.00;10.75;;;;;20.86;56.55;101485.16;5035917;28;45357;-77